VSV701 UAII-UACC
Flight info
| Callsign | VSV701 |
|---|---|
| Flight time | 1h 29m |
| Altitude | 36000 |
| Route | N0450F360 MAGOL P178 AMIGU M75 KOKON |
| Aircraft | B38M/M-SDE1FGHILORVWXY/HB1 |
Departure
| Time | 2026-04-24 09:43 |
|---|---|
| Airport | Shymkent International Airport (UAII) |
Arrival
| Time | 2026-04-24 11:12 |
|---|---|
| Airport | Nursultan Nazarbayev International Airport (UACC) |
| Time | Latitude | Longitude | Altitude | Speed | Heading |
|---|---|---|---|---|---|
| 2026-04-24 09:19 | 42.36693 | 69.48932 | 1358 ft | 0 kts | 38° |
| 2026-04-24 09:35 | 42.36691 | 69.48930 | 1358 ft | 2 kts | 38° |
| 2026-04-24 09:35 | 42.36678 | 69.48916 | 1360 ft | 2 kts | 38° |
| 2026-04-24 09:35 | 42.36665 | 69.48903 | 1357 ft | 2 kts | 38° |
| 2026-04-24 09:36 | 42.36652 | 69.48889 | 1358 ft | 2 kts | 38° |
| 2026-04-24 09:36 | 42.36640 | 69.48875 | 1358 ft | 2 kts | 38° |
| 2026-04-24 09:36 | 42.36627 | 69.48862 | 1356 ft | 2 kts | 38° |
| 2026-04-24 09:36 | 42.36614 | 69.48848 | 1357 ft | 2 kts | 37° |
| 2026-04-24 09:37 | 42.36601 | 69.48835 | 1357 ft | 2 kts | 37° |
| 2026-04-24 09:37 | 42.36590 | 69.48823 | 1357 ft | 2 kts | 53° |
| 2026-04-24 09:37 | 42.36587 | 69.48816 | 1357 ft | 2 kts | 69° |
| 2026-04-24 09:37 | 42.36591 | 69.48836 | 1357 ft | 2 kts | 82° |
| 2026-04-24 09:38 | 42.36589 | 69.48859 | 1358 ft | 3 kts | 107° |
| 2026-04-24 09:38 | 42.36587 | 69.48866 | 1358 ft | 0 kts | 111° |
| 2026-04-24 09:39 | 42.36587 | 69.48867 | 1358 ft | 1 kts | 111° |
| 2026-04-24 09:40 | 42.36573 | 69.48915 | 1359 ft | 12 kts | 112° |
| 2026-04-24 09:40 | 42.36559 | 69.49024 | 1359 ft | 12 kts | 78° |
| 2026-04-24 09:40 | 42.36572 | 69.49147 | 1358 ft | 14 kts | 94° |
| 2026-04-24 09:40 | 42.36531 | 69.49273 | 1358 ft | 16 kts | 116° |
| 2026-04-24 09:41 | 42.36481 | 69.49373 | 1358 ft | 11 kts | 163° |
| 2026-04-24 09:41 | 42.36400 | 69.49350 | 1358 ft | 13 kts | 198° |
| 2026-04-24 09:41 | 42.36308 | 69.49311 | 1358 ft | 15 kts | 197° |
| 2026-04-24 09:41 | 42.36206 | 69.49278 | 1358 ft | 14 kts | 181° |
| 2026-04-24 09:42 | 42.36147 | 69.49232 | 1359 ft | 7 kts | 255° |
| 2026-04-24 09:42 | 42.36155 | 69.49173 | 1359 ft | 11 kts | 285° |
| 2026-04-24 09:42 | 42.36238 | 69.48793 | 1359 ft | 78 kts | 286° |
| 2026-04-24 09:42 | 42.36457 | 69.47777 | 1361 ft | 144 kts | 286° |
| 2026-04-24 09:43 | 42.36800 | 69.46259 | 1605 ft | 181 kts | 288° |
| 2026-04-24 09:43 | 42.37192 | 69.44610 | 2477 ft | 187 kts | 288° |
| 2026-04-24 09:43 | 42.37683 | 69.42973 | 3362 ft | 187 kts | 303° |
| 2026-04-24 09:43 | 42.38639 | 69.41782 | 3978 ft | 192 kts | 334° |
| 2026-04-24 09:44 | 42.39953 | 69.41430 | 4535 ft | 203 kts | 3° |
| 2026-04-24 09:44 | 42.41403 | 69.41741 | 5073 ft | 215 kts | 9° |
| 2026-04-24 09:44 | 42.42933 | 69.41859 | 5683 ft | 227 kts | 357° |
| 2026-04-24 09:44 | 42.44513 | 69.41752 | 6396 ft | 230 kts | 354° |
| 2026-04-24 09:45 | 42.46160 | 69.41606 | 7013 ft | 243 kts | 355° |
| 2026-04-24 09:45 | 42.47868 | 69.41507 | 7713 ft | 249 kts | 355° |
| 2026-04-24 09:45 | 42.49639 | 69.41403 | 8373 ft | 258 kts | 356° |
| 2026-04-24 09:45 | 42.51452 | 69.41334 | 9125 ft | 262 kts | 356° |
| 2026-04-24 09:46 | 42.53300 | 69.41261 | 9826 ft | 271 kts | 356° |
| 2026-04-24 09:46 | 42.55209 | 69.41188 | 10378 ft | 282 kts | 355° |
| 2026-04-24 09:46 | 42.57189 | 69.41086 | 11113 ft | 286 kts | 352° |
| 2026-04-24 09:46 | 42.59177 | 69.40582 | 11696 ft | 294 kts | 337° |
| 2026-04-24 09:47 | 42.61050 | 69.39401 | 12366 ft | 301 kts | 328° |
| 2026-04-24 09:47 | 42.62900 | 69.37989 | 13014 ft | 310 kts | 328° |
| 2026-04-24 09:47 | 42.64816 | 69.36544 | 13715 ft | 319 kts | 328° |
| 2026-04-24 09:47 | 42.66802 | 69.35115 | 14406 ft | 326 kts | 330° |
| 2026-04-24 09:48 | 42.68853 | 69.33710 | 15092 ft | 332 kts | 330° |
| 2026-04-24 09:48 | 42.70950 | 69.32305 | 15755 ft | 340 kts | 330° |
| 2026-04-24 09:48 | 42.73106 | 69.30882 | 16408 ft | 346 kts | 330° |
| 2026-04-24 09:48 | 42.75273 | 69.29458 | 17094 ft | 352 kts | 330° |
| 2026-04-24 09:49 | 42.77505 | 69.27982 | 17652 ft | 360 kts | 330° |
| 2026-04-24 09:49 | 42.79686 | 69.26258 | 18216 ft | 363 kts | 318° |
| 2026-04-24 09:49 | 42.81371 | 69.23742 | 18755 ft | 360 kts | 298° |
| 2026-04-24 09:49 | 42.82355 | 69.20618 | 19366 ft | 360 kts | 285° |
| 2026-04-24 09:50 | 42.83006 | 69.17357 | 19915 ft | 363 kts | 282° |
| 2026-04-24 09:50 | 42.83604 | 69.14002 | 20500 ft | 366 kts | 282° |
| 2026-04-24 09:50 | 42.84230 | 69.10635 | 21149 ft | 367 kts | 283° |
| 2026-04-24 09:50 | 42.84906 | 69.07262 | 21767 ft | 370 kts | 283° |
| 2026-04-24 09:51 | 42.85623 | 69.03858 | 22348 ft | 373 kts | 284° |
| 2026-04-24 09:51 | 42.86350 | 69.00496 | 22867 ft | 377 kts | 284° |
| 2026-04-24 09:51 | 42.87093 | 68.97057 | 23475 ft | 378 kts | 284° |
| 2026-04-24 09:51 | 42.87849 | 68.93610 | 23931 ft | 382 kts | 283° |
| 2026-04-24 09:52 | 42.88611 | 68.90111 | 24385 ft | 385 kts | 287° |
| 2026-04-24 09:52 | 42.89812 | 68.86821 | 24876 ft | 393 kts | 302° |
| 2026-04-24 09:52 | 42.91750 | 68.84134 | 25276 ft | 407 kts | 320° |
| 2026-04-24 09:52 | 42.94263 | 68.82228 | 25703 ft | 417 kts | 331° |
| 2026-04-24 09:53 | 42.96954 | 68.80717 | 26202 ft | 419 kts | 333° |
| 2026-04-24 09:53 | 42.99664 | 68.79236 | 26626 ft | 421 kts | 332° |
| 2026-04-24 09:53 | 43.02370 | 68.77624 | 26935 ft | 426 kts | 330° |
| 2026-04-24 09:53 | 43.05069 | 68.75936 | 27367 ft | 427 kts | 329° |
| 2026-04-24 09:54 | 43.07761 | 68.74215 | 27768 ft | 429 kts | 329° |
| 2026-04-24 09:54 | 43.10479 | 68.72453 | 28159 ft | 432 kts | 329° |
| 2026-04-24 09:54 | 43.13167 | 68.70697 | 28544 ft | 435 kts | 329° |
| 2026-04-24 09:54 | 43.15912 | 68.68899 | 28927 ft | 437 kts | 329° |
| 2026-04-24 09:55 | 43.18667 | 68.67090 | 29301 ft | 440 kts | 328° |
| 2026-04-24 09:55 | 43.21438 | 68.65269 | 29656 ft | 442 kts | 328° |
| 2026-04-24 09:55 | 43.24225 | 68.63436 | 30030 ft | 445 kts | 328° |
| 2026-04-24 09:55 | 43.27029 | 68.61589 | 30334 ft | 447 kts | 328° |
| 2026-04-24 09:56 | 43.29851 | 68.59729 | 30652 ft | 449 kts | 328° |
| 2026-04-24 09:56 | 43.32610 | 68.57842 | 30959 ft | 448 kts | 324° |
| 2026-04-24 09:56 | 43.35263 | 68.55586 | 31242 ft | 449 kts | 323° |
| 2026-04-24 09:56 | 43.37938 | 68.53350 | 31534 ft | 451 kts | 323° |
| 2026-04-24 09:57 | 43.40626 | 68.51129 | 31852 ft | 453 kts | 323° |
| 2026-04-24 09:57 | 43.43340 | 68.48899 | 32242 ft | 452 kts | 323° |
| 2026-04-24 09:57 | 43.46050 | 68.46674 | 32686 ft | 451 kts | 323° |
| 2026-04-24 09:57 | 43.48742 | 68.44464 | 33087 ft | 450 kts | 323° |
| 2026-04-24 09:58 | 43.51445 | 68.42243 | 33505 ft | 449 kts | 323° |
| 2026-04-24 09:58 | 43.54126 | 68.40036 | 33915 ft | 449 kts | 323° |
| 2026-04-24 09:58 | 43.56812 | 68.37824 | 34270 ft | 448 kts | 323° |
| 2026-04-24 09:58 | 43.59477 | 68.35627 | 34572 ft | 448 kts | 323° |
| 2026-04-24 09:59 | 43.62186 | 68.33491 | 34862 ft | 453 kts | 330° |
| 2026-04-24 09:59 | 43.65254 | 68.32187 | 35177 ft | 464 kts | 345° |
| 2026-04-24 09:59 | 43.68482 | 68.31635 | 35419 ft | 468 kts | 348° |
| 2026-04-24 09:59 | 43.71685 | 68.31136 | 35650 ft | 469 kts | 348° |
| 2026-04-24 10:00 | 43.74946 | 68.30661 | 35930 ft | 470 kts | 348° |
| 2026-04-24 10:00 | 43.78210 | 68.30206 | 36054 ft | 471 kts | 349° |
| 2026-04-24 10:00 | 43.84724 | 68.29321 | 36036 ft | 469 kts | 349° |
| 2026-04-24 10:01 | 43.91234 | 68.28438 | 36036 ft | 469 kts | 349° |
| 2026-04-24 10:01 | 43.97742 | 68.27554 | 36027 ft | 469 kts | 348° |
| 2026-04-24 10:02 | 44.03149 | 68.26818 | 36040 ft | 470 kts | 349° |
| 2026-04-24 10:02 | 44.10716 | 68.25785 | 36014 ft | 471 kts | 349° |
| 2026-04-24 10:03 | 44.17273 | 68.25992 | 36039 ft | 478 kts | 4° |
| 2026-04-24 10:03 | 44.22802 | 68.27095 | 36024 ft | 479 kts | 3° |
| 2026-04-24 10:04 | 44.29410 | 68.28453 | 36179 ft | 478 kts | 4° |
| 2026-04-24 10:04 | 44.32699 | 68.29136 | 36453 ft | 478 kts | 4° |
| 2026-04-24 10:04 | 44.35944 | 68.29811 | 36723 ft | 477 kts | 4° |
| 2026-04-24 10:05 | 44.39271 | 68.30504 | 36976 ft | 476 kts | 4° |
| 2026-04-24 10:05 | 44.42558 | 68.31189 | 37048 ft | 479 kts | 4° |
| 2026-04-24 10:05 | 44.49142 | 68.32564 | 37015 ft | 480 kts | 4° |
| 2026-04-24 10:06 | 44.59073 | 68.34645 | 37013 ft | 481 kts | 4° |
| 2026-04-24 10:07 | 44.65687 | 68.36034 | 37018 ft | 481 kts | 4° |
| 2026-04-24 10:07 | 44.72328 | 68.37433 | 37012 ft | 481 kts | 4° |
| 2026-04-24 10:08 | 44.78910 | 68.38822 | 37020 ft | 481 kts | 4° |
| 2026-04-24 10:08 | 44.85545 | 68.40226 | 37020 ft | 481 kts | 4° |
| 2026-04-24 10:09 | 44.92179 | 68.41633 | 37016 ft | 481 kts | 4° |
| 2026-04-24 10:09 | 44.98821 | 68.43045 | 37018 ft | 481 kts | 4° |
| 2026-04-24 10:10 | 45.05449 | 68.44456 | 37017 ft | 481 kts | 4° |
| 2026-04-24 10:10 | 45.12087 | 68.45874 | 37019 ft | 481 kts | 4° |
| 2026-04-24 10:11 | 45.18673 | 68.47284 | 37021 ft | 482 kts | 4° |
| 2026-04-24 10:11 | 45.25324 | 68.48711 | 37020 ft | 481 kts | 4° |
| 2026-04-24 10:12 | 45.31960 | 68.50138 | 37023 ft | 482 kts | 4° |
| 2026-04-24 10:12 | 45.38589 | 68.51567 | 37020 ft | 481 kts | 4° |
| 2026-04-24 10:13 | 45.45224 | 68.53001 | 37026 ft | 481 kts | 4° |
| 2026-04-24 10:13 | 45.51818 | 68.54429 | 37019 ft | 481 kts | 4° |
| 2026-04-24 10:14 | 45.58463 | 68.55872 | 37020 ft | 481 kts | 4° |
| 2026-04-24 10:14 | 45.65088 | 68.57313 | 37020 ft | 481 kts | 4° |
| 2026-04-24 10:15 | 45.71677 | 68.58750 | 37021 ft | 481 kts | 4° |
| 2026-04-24 10:15 | 45.78271 | 68.60195 | 37022 ft | 481 kts | 4° |
| 2026-04-24 10:16 | 45.84945 | 68.61659 | 37022 ft | 481 kts | 4° |
| 2026-04-24 10:16 | 45.91575 | 68.63118 | 37021 ft | 481 kts | 4° |
| 2026-04-24 10:17 | 45.98165 | 68.64571 | 37019 ft | 481 kts | 4° |
| 2026-04-24 10:17 | 46.04796 | 68.66037 | 37020 ft | 481 kts | 4° |
| 2026-04-24 10:18 | 46.11436 | 68.67508 | 37016 ft | 481 kts | 4° |
| 2026-04-24 10:18 | 46.18017 | 68.68970 | 37012 ft | 481 kts | 4° |
| 2026-04-24 10:19 | 46.24656 | 68.70449 | 37020 ft | 481 kts | 4° |
| 2026-04-24 10:19 | 46.31270 | 68.71925 | 37014 ft | 481 kts | 4° |
| 2026-04-24 10:20 | 46.37898 | 68.73408 | 37020 ft | 481 kts | 4° |
| 2026-04-24 10:20 | 46.44477 | 68.74884 | 37018 ft | 481 kts | 4° |
| 2026-04-24 10:21 | 46.51099 | 68.76373 | 37011 ft | 481 kts | 4° |
| 2026-04-24 10:21 | 46.57729 | 68.77867 | 37013 ft | 481 kts | 4° |
| 2026-04-24 10:22 | 46.64297 | 68.79351 | 37013 ft | 481 kts | 4° |
| 2026-04-24 10:22 | 46.70917 | 68.80851 | 37010 ft | 480 kts | 4° |
| 2026-04-24 10:23 | 46.77531 | 68.82353 | 37011 ft | 480 kts | 4° |
| 2026-04-24 10:23 | 46.84143 | 68.83858 | 37008 ft | 480 kts | 4° |
| 2026-04-24 10:24 | 46.90747 | 68.85366 | 37008 ft | 480 kts | 4° |
| 2026-04-24 10:24 | 46.97363 | 68.86880 | 37007 ft | 480 kts | 4° |
| 2026-04-24 10:25 | 47.03932 | 68.88386 | 37008 ft | 480 kts | 4° |
| 2026-04-24 10:25 | 47.10534 | 68.89904 | 37003 ft | 480 kts | 4° |
| 2026-04-24 10:26 | 47.17139 | 68.91427 | 37001 ft | 480 kts | 5° |
| 2026-04-24 10:26 | 47.23752 | 68.92955 | 37005 ft | 480 kts | 5° |
| 2026-04-24 10:27 | 47.30358 | 68.94486 | 37003 ft | 480 kts | 5° |
| 2026-04-24 10:27 | 47.36964 | 68.96020 | 37003 ft | 480 kts | 5° |
| 2026-04-24 10:28 | 47.43537 | 68.97551 | 37001 ft | 480 kts | 5° |
| 2026-04-24 10:28 | 47.50132 | 68.99091 | 37001 ft | 480 kts | 5° |
| 2026-04-24 10:29 | 47.56760 | 69.00642 | 37003 ft | 480 kts | 5° |
| 2026-04-24 10:29 | 47.63326 | 69.02182 | 36998 ft | 480 kts | 5° |
| 2026-04-24 10:30 | 47.69926 | 69.03736 | 37001 ft | 481 kts | 5° |
| 2026-04-24 10:30 | 47.76534 | 69.05294 | 37004 ft | 480 kts | 5° |
| 2026-04-24 10:31 | 47.83153 | 69.06859 | 37002 ft | 481 kts | 5° |
| 2026-04-24 10:31 | 47.89753 | 69.08424 | 37004 ft | 480 kts | 5° |
| 2026-04-24 10:32 | 47.96367 | 69.09996 | 37004 ft | 481 kts | 5° |
| 2026-04-24 10:32 | 48.02982 | 69.11572 | 37002 ft | 481 kts | 5° |
| 2026-04-24 10:33 | 48.09596 | 69.13152 | 36999 ft | 481 kts | 5° |
| 2026-04-24 10:33 | 48.16166 | 69.14726 | 37002 ft | 481 kts | 5° |
| 2026-04-24 10:34 | 48.22783 | 69.16315 | 37002 ft | 481 kts | 5° |
| 2026-04-24 10:34 | 48.29399 | 69.17908 | 37002 ft | 481 kts | 5° |
| 2026-04-24 10:35 | 48.36012 | 69.19505 | 36997 ft | 481 kts | 5° |
| 2026-04-24 10:35 | 48.42594 | 69.21098 | 37000 ft | 481 kts | 5° |
| 2026-04-24 10:36 | 48.49217 | 69.22705 | 36997 ft | 481 kts | 5° |
| 2026-04-24 10:36 | 48.55845 | 69.24319 | 37002 ft | 481 kts | 5° |
| 2026-04-24 10:37 | 48.62437 | 69.25927 | 37000 ft | 482 kts | 5° |
| 2026-04-24 10:37 | 48.69060 | 69.27547 | 37001 ft | 482 kts | 5° |
| 2026-04-24 10:38 | 48.75700 | 69.29176 | 36999 ft | 482 kts | 5° |
| 2026-04-24 10:38 | 48.82285 | 69.30796 | 36999 ft | 482 kts | 5° |
| 2026-04-24 10:39 | 48.88917 | 69.32431 | 37001 ft | 482 kts | 5° |
| 2026-04-24 10:39 | 48.95550 | 69.34071 | 36998 ft | 482 kts | 5° |
| 2026-04-24 10:40 | 49.02185 | 69.35715 | 36996 ft | 483 kts | 5° |
| 2026-04-24 10:40 | 49.08831 | 69.37366 | 37000 ft | 483 kts | 5° |
| 2026-04-24 10:41 | 49.15469 | 69.39020 | 36999 ft | 483 kts | 5° |
| 2026-04-24 10:41 | 49.22074 | 69.40668 | 37000 ft | 483 kts | 5° |
| 2026-04-24 10:42 | 49.28568 | 69.43406 | 36981 ft | 491 kts | 27° |
| 2026-04-24 10:42 | 49.34260 | 69.49335 | 36987 ft | 496 kts | 33° |
| 2026-04-24 10:43 | 49.38965 | 69.54529 | 37007 ft | 497 kts | 34° |
| 2026-04-24 10:43 | 49.44557 | 69.60810 | 36996 ft | 497 kts | 34° |
| 2026-04-24 10:44 | 49.50100 | 69.67064 | 37002 ft | 498 kts | 34° |
| 2026-04-24 10:44 | 49.55677 | 69.73377 | 36995 ft | 491 kts | 34° |
| 2026-04-24 10:45 | 49.61133 | 69.79568 | 36920 ft | 483 kts | 34° |
| 2026-04-24 10:45 | 49.63826 | 69.82631 | 36143 ft | 483 kts | 34° |
| 2026-04-24 10:45 | 49.66544 | 69.85728 | 35088 ft | 483 kts | 34° |
| 2026-04-24 10:45 | 49.69185 | 69.88741 | 34407 ft | 473 kts | 34° |
| 2026-04-24 10:46 | 49.71806 | 69.91734 | 33788 ft | 463 kts | 34° |
| 2026-04-24 10:46 | 49.74361 | 69.94657 | 33174 ft | 450 kts | 34° |
| 2026-04-24 10:46 | 49.76889 | 69.97551 | 32626 ft | 455 kts | 34° |
| 2026-04-24 10:46 | 49.79456 | 70.00495 | 32079 ft | 460 kts | 35° |
| 2026-04-24 10:47 | 49.82040 | 70.03462 | 31552 ft | 461 kts | 35° |
| 2026-04-24 10:47 | 49.84597 | 70.06403 | 31014 ft | 456 kts | 35° |
| 2026-04-24 10:47 | 49.87091 | 70.09274 | 30477 ft | 453 kts | 35° |
| 2026-04-24 10:47 | 49.89638 | 70.12211 | 29891 ft | 451 kts | 35° |
| 2026-04-24 10:48 | 49.92149 | 70.15110 | 29277 ft | 448 kts | 35° |
| 2026-04-24 10:48 | 49.94635 | 70.17983 | 28737 ft | 443 kts | 35° |
| 2026-04-24 10:48 | 49.97099 | 70.20836 | 28223 ft | 439 kts | 35° |
| 2026-04-24 10:48 | 49.99541 | 70.23664 | 27678 ft | 435 kts | 35° |
| 2026-04-24 10:49 | 50.01956 | 70.26466 | 27153 ft | 432 kts | 35° |
| 2026-04-24 10:49 | 50.04361 | 70.29263 | 26606 ft | 430 kts | 36° |
| 2026-04-24 10:49 | 50.06749 | 70.32049 | 26021 ft | 429 kts | 36° |
| 2026-04-24 10:49 | 50.09138 | 70.34838 | 25535 ft | 425 kts | 36° |
| 2026-04-24 10:50 | 50.11500 | 70.37598 | 25035 ft | 423 kts | 36° |
| 2026-04-24 10:50 | 50.13823 | 70.40316 | 24536 ft | 420 kts | 36° |
| 2026-04-24 10:50 | 50.16188 | 70.43088 | 24027 ft | 419 kts | 36° |
| 2026-04-24 10:50 | 50.18523 | 70.45826 | 23487 ft | 418 kts | 36° |
| 2026-04-24 10:51 | 50.20829 | 70.48533 | 22989 ft | 414 kts | 36° |
| 2026-04-24 10:51 | 50.23102 | 70.51206 | 22508 ft | 410 kts | 36° |
| 2026-04-24 10:51 | 50.25370 | 70.53874 | 22027 ft | 407 kts | 36° |
| 2026-04-24 10:51 | 50.27626 | 70.56534 | 21540 ft | 404 kts | 36° |
| 2026-04-24 10:52 | 50.29870 | 70.59182 | 21071 ft | 402 kts | 36° |
| 2026-04-24 10:52 | 50.32090 | 70.61804 | 20597 ft | 400 kts | 36° |
| 2026-04-24 10:52 | 50.34308 | 70.64429 | 20133 ft | 398 kts | 36° |
| 2026-04-24 10:52 | 50.36518 | 70.67042 | 19592 ft | 398 kts | 36° |
| 2026-04-24 10:53 | 50.38735 | 70.69667 | 19129 ft | 397 kts | 36° |
| 2026-04-24 10:53 | 50.40930 | 70.72269 | 18701 ft | 395 kts | 36° |
| 2026-04-24 10:53 | 50.43118 | 70.74865 | 18234 ft | 394 kts | 36° |
| 2026-04-24 10:53 | 50.45309 | 70.77468 | 17718 ft | 393 kts | 36° |
| 2026-04-24 10:54 | 50.47483 | 70.80054 | 17243 ft | 391 kts | 36° |
| 2026-04-24 10:54 | 50.49645 | 70.82629 | 16775 ft | 389 kts | 36° |
| 2026-04-24 10:54 | 50.51801 | 70.85199 | 16316 ft | 387 kts | 36° |
| 2026-04-24 10:54 | 50.53947 | 70.87760 | 15853 ft | 386 kts | 36° |
| 2026-04-24 10:55 | 50.56076 | 70.90306 | 15403 ft | 384 kts | 36° |
| 2026-04-24 10:55 | 50.58206 | 70.92853 | 14950 ft | 383 kts | 36° |
| 2026-04-24 10:55 | 50.60325 | 70.95392 | 14500 ft | 382 kts | 36° |
| 2026-04-24 10:55 | 50.62433 | 70.97920 | 14050 ft | 381 kts | 37° |
| 2026-04-24 10:56 | 50.64540 | 71.00449 | 13574 ft | 380 kts | 36° |
| 2026-04-24 10:56 | 50.66643 | 71.02977 | 13086 ft | 378 kts | 37° |
| 2026-04-24 10:56 | 50.68724 | 71.05482 | 12635 ft | 376 kts | 37° |
| 2026-04-24 10:56 | 50.70797 | 71.07979 | 12200 ft | 374 kts | 36° |
| 2026-04-24 10:57 | 50.72865 | 71.10473 | 11745 ft | 372 kts | 36° |
| 2026-04-24 10:57 | 50.74893 | 71.12921 | 11303 ft | 368 kts | 36° |
| 2026-04-24 10:57 | 50.76895 | 71.15326 | 10833 ft | 357 kts | 36° |
| 2026-04-24 10:57 | 50.78732 | 71.17524 | 10414 ft | 347 kts | 36° |
| 2026-04-24 10:58 | 50.80632 | 71.19802 | 10026 ft | 336 kts | 36° |
| 2026-04-24 10:58 | 50.82469 | 71.22006 | 9598 ft | 327 kts | 36° |
| 2026-04-24 10:58 | 50.84254 | 71.24150 | 9188 ft | 318 kts | 36° |
| 2026-04-24 10:58 | 50.85991 | 71.26239 | 8817 ft | 309 kts | 36° |
| 2026-04-24 10:59 | 50.87675 | 71.28265 | 8461 ft | 300 kts | 36° |
| 2026-04-24 10:59 | 50.89312 | 71.30237 | 8111 ft | 292 kts | 36° |
| 2026-04-24 10:59 | 50.90928 | 71.32186 | 7774 ft | 290 kts | 36° |
| 2026-04-24 10:59 | 50.92532 | 71.34121 | 7436 ft | 290 kts | 36° |
| 2026-04-24 11:00 | 50.94142 | 71.36066 | 7104 ft | 292 kts | 36° |
| 2026-04-24 11:00 | 50.95761 | 71.38022 | 6751 ft | 293 kts | 36° |
| 2026-04-24 11:00 | 50.97385 | 71.39989 | 6396 ft | 294 kts | 36° |
| 2026-04-24 11:00 | 50.98832 | 71.41740 | 6070 ft | 289 kts | 37° |
| 2026-04-24 11:01 | 51.00157 | 71.44029 | 5924 ft | 277 kts | 63° |
| 2026-04-24 11:01 | 51.00839 | 71.46880 | 5907 ft | 278 kts | 72° |
| 2026-04-24 11:01 | 51.01478 | 71.49786 | 5815 ft | 279 kts | 71° |
| 2026-04-24 11:01 | 51.02110 | 71.52650 | 5775 ft | 279 kts | 71° |
| 2026-04-24 11:02 | 51.02754 | 71.55586 | 5713 ft | 278 kts | 72° |
| 2026-04-24 11:02 | 51.03378 | 71.58448 | 5679 ft | 278 kts | 72° |
| 2026-04-24 11:02 | 51.04013 | 71.61363 | 5618 ft | 279 kts | 72° |
| 2026-04-24 11:02 | 51.04645 | 71.64263 | 5551 ft | 278 kts | 72° |
| 2026-04-24 11:03 | 51.05274 | 71.67161 | 5500 ft | 278 kts | 72° |
| 2026-04-24 11:03 | 51.05905 | 71.70073 | 5434 ft | 277 kts | 72° |
| 2026-04-24 11:03 | 51.06531 | 71.72967 | 5391 ft | 278 kts | 72° |
| 2026-04-24 11:03 | 51.07160 | 71.75876 | 5345 ft | 278 kts | 71° |
| 2026-04-24 11:04 | 51.07787 | 71.78781 | 5261 ft | 277 kts | 72° |
| 2026-04-24 11:04 | 51.08412 | 71.81675 | 5185 ft | 277 kts | 72° |
| 2026-04-24 11:04 | 51.09226 | 71.84447 | 5137 ft | 278 kts | 54° |
| 2026-04-24 11:04 | 51.10634 | 71.86476 | 5043 ft | 270 kts | 25° |
| 2026-04-24 11:05 | 51.12362 | 71.87307 | 5020 ft | 253 kts | 1° |
| 2026-04-24 11:05 | 51.14058 | 71.87062 | 4952 ft | 237 kts | 339° |
| 2026-04-24 11:05 | 51.15475 | 71.85955 | 4899 ft | 221 kts | 317° |
| 2026-04-24 11:05 | 51.16535 | 71.84207 | 4879 ft | 222 kts | 302° |
| 2026-04-24 11:06 | 51.17498 | 71.82231 | 4895 ft | 229 kts | 303° |
| 2026-04-24 11:06 | 51.18497 | 71.80223 | 4883 ft | 231 kts | 304° |
| 2026-04-24 11:06 | 51.19307 | 71.78044 | 4799 ft | 226 kts | 282° |
| 2026-04-24 11:06 | 51.19368 | 71.75641 | 4688 ft | 215 kts | 254° |
| 2026-04-24 11:07 | 51.18087 | 71.71668 | 4669 ft | 195 kts | 232° |
| 2026-04-24 11:07 | 51.17187 | 71.70055 | 4646 ft | 191 kts | 227° |
| 2026-04-24 11:07 | 51.16253 | 71.68558 | 4487 ft | 189 kts | 226° |
| 2026-04-24 11:08 | 51.15325 | 71.67102 | 4338 ft | 183 kts | 225° |
| 2026-04-24 11:08 | 51.14451 | 71.65726 | 4148 ft | 176 kts | 226° |
| 2026-04-24 11:08 | 51.13589 | 71.64362 | 3900 ft | 173 kts | 226° |
| 2026-04-24 11:08 | 51.12761 | 71.63071 | 3739 ft | 158 kts | 224° |
| 2026-04-24 11:09 | 51.11991 | 71.61858 | 3500 ft | 154 kts | 225° |
| 2026-04-24 11:09 | 51.11229 | 71.60665 | 3351 ft | 153 kts | 226° |
| 2026-04-24 11:09 | 51.10473 | 71.59479 | 3094 ft | 152 kts | 226° |
| 2026-04-24 11:09 | 51.09732 | 71.58320 | 2929 ft | 145 kts | 225° |
| 2026-04-24 11:10 | 51.09029 | 71.57213 | 2747 ft | 140 kts | 225° |
| 2026-04-24 11:10 | 51.08344 | 71.56138 | 2528 ft | 136 kts | 226° |
| 2026-04-24 11:10 | 51.07676 | 71.55090 | 2338 ft | 137 kts | 226° |
| 2026-04-24 11:10 | 51.06993 | 71.54017 | 2184 ft | 138 kts | 224° |
| 2026-04-24 11:11 | 51.06286 | 71.52927 | 2027 ft | 140 kts | 226° |
| 2026-04-24 11:11 | 51.05614 | 71.51871 | 1822 ft | 135 kts | 227° |
| 2026-04-24 11:11 | 51.04934 | 71.50801 | 1606 ft | 141 kts | 226° |
| 2026-04-24 11:11 | 51.04208 | 71.49666 | 1441 ft | 150 kts | 227° |
| 2026-04-24 11:12 | 51.03470 | 71.48514 | 1248 ft | 145 kts | 225° |
| 2026-04-24 11:12 | 51.02797 | 71.47463 | 1168 ft | 119 kts | 225° |
| 2026-04-24 11:12 | 51.02384 | 71.46816 | 1167 ft | 56 kts | 225° |
| 2026-04-24 11:12 | 51.02126 | 71.46417 | 1167 ft | 43 kts | 224° |
| 2026-04-24 11:13 | 51.01992 | 71.46204 | 1169 ft | 25 kts | 224° |
| 2026-04-24 11:13 | 51.01863 | 71.46002 | 1170 ft | 27 kts | 224° |
| 2026-04-24 11:13 | 51.01749 | 71.45823 | 1169 ft | 29 kts | 225° |
| 2026-04-24 11:13 | 51.01717 | 71.45619 | 1164 ft | 17 kts | 311° |
| 2026-04-24 11:14 | 51.01794 | 71.45506 | 1164 ft | 14 kts | 334° |
| 2026-04-24 11:14 | 51.01879 | 71.45567 | 1166 ft | 15 kts | 45° |
| 2026-04-24 11:14 | 51.01960 | 71.45697 | 1166 ft | 18 kts | 44° |
| 2026-04-24 11:14 | 51.02053 | 71.45841 | 1166 ft | 20 kts | 45° |
| 2026-04-24 11:15 | 51.02156 | 71.46002 | 1164 ft | 22 kts | 45° |
| 2026-04-24 11:15 | 51.02263 | 71.46168 | 1165 ft | 16 kts | 44° |
| 2026-04-24 11:15 | 51.02349 | 71.46231 | 1165 ft | 14 kts | 335° |
| 2026-04-24 11:15 | 51.02424 | 71.46122 | 1165 ft | 15 kts | 314° |
| 2026-04-24 11:16 | 51.02492 | 71.46013 | 1164 ft | 14 kts | 315° |
| 2026-04-24 11:16 | 51.02547 | 71.45922 | 1163 ft | 9 kts | 309° |
| 2026-04-24 11:16 | 51.02551 | 71.45858 | 1166 ft | 5 kts | 245° |
| 2026-04-24 11:16 | 51.02523 | 71.45808 | 1165 ft | 6 kts | 222° |
| 2026-04-24 11:17 | 51.02508 | 71.45786 | 1166 ft | 0 kts | 224° |